Time;durP1;ratioP1;P1;durP2;ratioP2;P2;SDS_P1;SDS_P2;PMS_P1;PMS_P2;Temp;Humidity;BMP_temperature;BMP_pressure;BME280_temperature;BME280_humidity;BME280_pressure;Samples;Min_cycle;Max_cycle;Signal;HPM_P1;HPM_P2
2021/12/27 00:02:57;;;;;;;22.15;13.90;;;;;;;-4.58;79.58;100512.00;1683087;83;21311;-81
2021/12/27 00:06:04;;;;;;;27.75;14.65;;;;;;;-4.57;79.53;100515.06;1705503;83;21838;-82
2021/12/27 00:09:11;;;;;;;27.17;14.53;;;;;;;-4.57;79.44;100509.72;1707511;83;21237;-82
2021/12/27 00:12:19;;;;;;;24.25;12.68;;;;;;;-4.48;79.39;100513.75;1720707;82;21205;-81
2021/12/27 00:15:23;;;;;;;29.50;14.40;;;;;;;-4.38;78.90;100523.89;1712269;83;21308;-81
2021/12/27 00:18:28;;;;;;;30.70;14.85;;;;;;;-4.33;78.39;100524.13;1757473;81;21355;-81
2021/12/27 00:21:32;;;;;;;25.90;13.60;;;;;;;-4.32;78.02;100520.08;1757489;81;21277;-83
2021/12/27 00:24:38;;;;;;;25.32;13.95;;;;;;;-4.32;77.66;100524.55;1767893;79;21881;-82
2021/12/27 00:27:43;;;;;;;25.97;13.85;;;;;;;-4.39;77.01;100523.50;1785256;80;21296;-82
2021/12/27 00:30:48;;;;;;;23.95;13.55;;;;;;;-4.49;76.76;100520.03;1764089;79;21308;-82
2021/12/27 00:33:53;;;;;;;32.00;13.70;;;;;;;-4.61;76.72;100528.20;1753144;82;21170;-82
2021/12/27 00:36:58;;;;;;;26.42;13.85;;;;;;;-4.76;76.73;100539.59;1752984;82;21600;-81
2021/12/27 00:40:03;;;;;;;27.98;13.75;;;;;;;-4.85;76.96;100536.02;1738392;81;21358;-81
2021/12/27 00:43:08;;;;;;;22.30;13.18;;;;;;;-5.00;76.74;100537.15;1769205;81;21310;-82
2021/12/27 00:46:13;;;;;;;24.95;13.85;;;;;;;-5.17;76.49;100539.77;1793701;79;21267;-81
2021/12/27 00:49:19;;;;;;;25.12;13.05;;;;;;;-5.33;76.21;100548.05;1800793;79;21252;-81
2021/12/27 00:52:23;;;;;;;29.50;15.58;;;;;;;-5.53;75.91;100544.97;1801147;79;21300;-80
2021/12/27 00:55:28;;;;;;;25.12;13.95;;;;;;;-5.75;75.92;100538.37;1789485;79;21307;-81
2021/12/27 00:58:34;;;;;;;23.95;14.03;;;;;;;-5.95;76.23;100548.61;1785392;80;21316;-82
2021/12/27 01:01:39;;;;;;;36.70;15.80;;;;;;;-6.01;76.91;100551.08;1754333;79;21949;-82
2021/12/27 01:04:45;;;;;;;25.52;14.78;;;;;;;-6.13;76.66;100550.72;1753594;82;21331;-82
2021/12/27 01:07:50;;;;;;;27.55;13.08;;;;;;;-6.27;76.89;100554.83;1737169;82;21866;-81
2021/12/27 01:11:25;;;;;;;25.35;13.25;;;;;;;-6.39;76.81;100551.83;1760436;81;21334;-82
2021/12/27 01:14:14;;;;;;;26.37;13.58;;;;;;;-6.58;76.19;100556.58;1767027;81;21274;-81
2021/12/27 01:17:17;;;;;;;28.98;13.75;;;;;;;-6.81;75.63;100554.83;1770394;81;21872;-80
2021/12/27 01:20:27;;;;;;;22.05;12.18;;;;;;;-7.10;75.22;100549.79;1770425;81;21900;-81
2021/12/27 01:23:32;;;;;;;24.70;13.88;;;;;;;-7.41;74.98;100557.58;1770580;81;21318;-81
2021/12/27 01:26:37;;;;;;;26.05;13.80;;;;;;;-7.69;74.87;100552.41;1770314;81;21255;-82
2021/12/27 01:29:42;;;;;;;22.73;12.70;;;;;;;-7.88;74.52;100550.87;1770450;81;21291;-81
2021/12/27 01:32:52;;;;;;;28.70;15.15;;;;;;;-8.04;74.54;100554.53;1768710;80;21208;-82
2021/12/27 01:35:57;;;;;;;33.05;16.45;;;;;;;-8.12;75.26;100561.02;1770763;81;21243;-82
2021/12/27 01:39:02;;;;;;;29.30;15.43;;;;;;;-8.14;76.20;100550.44;1773113;79;21265;-80
2021/12/27 01:42:07;;;;;;;31.50;16.95;;;;;;;-8.19;76.84;100552.37;1786466;80;21328;-80
2021/12/27 01:45:12;;;;;;;29.07;15.83;;;;;;;-8.19;78.31;100554.17;1786361;80;21965;-80
2021/12/27 01:48:20;;;;;;;32.05;16.85;;;;;;;-8.16;78.06;100556.27;1786281;80;21213;-81
2021/12/27 01:51:26;;;;;;;28.17;14.60;;;;;;;-8.12;79.21;100552.59;1786324;80;21264;-81
2021/12/27 01:54:31;;;;;;;25.55;14.73;;;;;;;-8.02;79.73;100559.78;1786200;79;21157;-81
2021/12/27 01:57:37;;;;;;;26.62;14.00;;;;;;;-8.00;78.22;100564.56;1786239;80;21921;-80
2021/12/27 02:00:43;;;;;;;32.00;15.63;;;;;;;-8.08;76.28;100566.17;1786361;80;21822;-80
2021/12/27 02:03:50;;;;;;;24.65;13.90;;;;;;;-8.23;75.36;100564.05;1786294;80;21189;-80
2021/12/27 02:06:57;;;;;;;24.63;14.40;;;;;;;-8.34;75.44;100555.09;1786178;80;21320;-80
2021/12/27 02:10:02;;;;;;;32.00;17.45;;;;;;;-8.44;74.21;100564.78;1786301;79;21197;-80
2021/12/27 02:13:09;;;;;;;40.20;19.77;;;;;;;-8.59;73.70;100567.48;1785077;80;21766;-80
2021/12/27 02:16:15;;;;;;;34.65;17.98;;;;;;;-8.73;73.49;100578.52;1785175;80;21308;-79
2021/12/27 02:19:20;;;;;;;33.02;18.17;;;;;;;-8.84;74.50;100581.98;1786121;80;21933;-80
2021/12/27 02:22:26;;;;;;;32.58;18.37;;;;;;;-8.91;74.57;100575.12;1785698;80;21422;-80
2021/12/27 02:25:32;;;;;;;35.68;18.27;;;;;;;-9.06;72.88;100572.02;1785393;79;21372;-82
2021/12/27 02:28:38;;;;;;;35.83;19.15;;;;;;;-9.15;72.93;100586.01;1784669;80;21225;-82
2021/12/27 02:31:45;;;;;;;40.65;21.12;;;;;;;-9.21;74.19;100584.41;1784599;79;21819;-82
2021/12/27 02:34:50;;;;;;;38.42;20.72;;;;;;;-9.23;75.64;100590.20;1781887;80;21288;-82
2021/12/27 02:37:55;;;;;;;44.27;21.95;;;;;;;-9.11;77.35;100599.58;1785452;80;21189;-81
2021/12/27 02:41:00;;;;;;;32.40;17.87;;;;;;;-9.08;76.29;100592.42;1801270;79;21307;-80
2021/12/27 02:44:06;;;;;;;33.58;17.42;;;;;;;-9.07;76.74;100600.77;1801970;79;21173;-79
2021/12/27 02:47:12;;;;;;;33.90;17.05;;;;;;;-9.07;76.29;100600.77;1801522;79;21318;-80
2021/12/27 02:50:17;;;;;;;28.95;16.45;;;;;;;-9.10;75.54;100609.27;1801841;79;21287;-79
2021/12/27 02:53:22;;;;;;;34.55;17.35;;;;;;;-9.31;73.21;100606.80;1800191;79;21833;-81
2021/12/27 02:56:29;;;;;;;32.70;18.02;;;;;;;-9.58;72.90;100610.63;1799913;79;21713;-82
2021/12/27 02:59:34;;;;;;;33.02;17.12;;;;;;;-9.77;74.61;100605.88;1800282;79;21157;-81
2021/12/27 03:02:44;;;;;;;33.38;18.48;;;;;;;-9.79;75.53;100605.90;1801245;79;21316;-81
2021/12/27 03:05:51;;;;;;;34.92;18.55;;;;;;;-9.78;75.08;100607.66;1801384;79;21312;-82
2021/12/27 03:08:58;;;;;;;45.30;21.60;;;;;;;-9.78;75.21;100602.37;1801674;79;21295;-81
2021/12/27 03:12:02;;;;;;;38.45;19.90;;;;;;;-9.79;76.10;100606.77;1796708;80;21275;-82
2021/12/27 03:15:08;;;;;;;35.92;18.75;;;;;;;-9.73;77.13;100602.24;1796868;80;21742;-82
2021/12/27 03:18:13;;;;;;;41.95;19.80;;;;;;;-9.65;77.89;100610.36;1796669;80;22374;-81
2021/12/27 03:21:17;;;;;;;35.68;17.80;;;;;;;-9.53;79.07;100607.39;1796856;80;21150;-81
2021/12/27 03:24:23;;;;;;;42.67;18.15;;;;;;;-9.37;80.44;100601.19;1796556;79;21193;-81
2021/12/27 03:27:29;;;;;;;33.25;17.67;;;;;;;-9.29;80.14;100614.23;1795799;80;21631;-81
2021/12/27 03:30:35;;;;;;;44.27;20.12;;;;;;;-9.22;79.95;100625.51;1796702;80;21785;-81
2021/12/27 03:33:41;;;;;;;42.60;19.52;;;;;;;-9.21;79.76;100620.19;1798494;79;21169;-81
2021/12/27 03:36:47;;;;;;;38.80;19.32;;;;;;;-9.20;80.51;100619.27;1807829;79;21936;-82
2021/12/27 03:39:52;;;;;;;36.40;18.42;;;;;;;-9.11;81.32;100622.11;1807690;79;21264;-81
2021/12/27 03:42:57;;;;;;;29.50;16.50;;;;;;;-9.14;78.79;100622.19;1805969;79;21185;-81
2021/12/27 03:46:02;;;;;;;36.63;17.30;;;;;;;-9.34;77.06;100620.12;1796882;80;21360;-81
2021/12/27 03:49:09;;;;;;;35.23;17.60;;;;;;;-9.40;78.90;100614.55;1796700;80;21157;-79
2021/12/27 03:52:14;;;;;;;38.60;16.85;;;;;;;-9.31;80.51;100620.05;1796681;80;21311;-80
2021/12/27 03:55:20;;;;;;;57.83;16.97;;;;;;;-9.22;81.13;100623.75;1796799;79;21165;-79
2021/12/27 03:58:29;;;;;;;38.35;17.37;;;;;;;-9.11;81.72;100630.06;1796737;79;21857;-79
2021/12/27 04:01:32;;;;;;;38.63;18.10;;;;;;;-9.00;82.00;100641.20;1796921;80;21264;-79
2021/12/27 04:04:37;;;;;;;33.53;17.75;;;;;;;-8.91;82.18;100636.09;1796227;80;21256;-79
2021/12/27 04:07:48;;;;;;;30.32;16.37;;;;;;;-8.85;81.75;100635.90;1794937;80;21176;-80
2021/12/27 04:10:54;;;;;;;34.25;17.35;;;;;;;-8.81;81.61;100641.52;1795793;80;21908;-79
2021/12/27 04:13:59;;;;;;;39.85;17.48;;;;;;;-8.85;80.07;100638.55;1795585;80;21311;-80
2021/12/27 04:17:04;;;;;;;36.88;18.55;;;;;;;-8.87;80.23;100651.00;1795481;80;21315;-79
2021/12/27 04:20:10;;;;;;;33.85;17.45;;;;;;;-8.86;80.54;100646.09;1797853;79;21272;-79
2021/12/27 04:23:16;;;;;;;36.33;17.98;;;;;;;-8.79;81.33;100647.67;1798691;79;21330;-79
2021/12/27 04:26:22;;;;;;;34.90;16.50;;;;;;;-8.73;81.80;100646.15;1767333;81;21286;-79
2021/12/27 04:29:29;;;;;;;34.25;17.32;;;;;;;-8.72;81.89;100647.88;1766820;81;21331;-79
2021/12/27 04:32:35;;;;;;;34.08;16.75;;;;;;;-8.73;81.73;100651.45;1767431;81;21312;-79
2021/12/27 04:35:40;;;;;;;33.10;18.50;;;;;;;-8.75;81.37;100649.28;1755757;81;21309;-79
2021/12/27 04:38:47;;;;;;;43.23;17.65;;;;;;;-8.81;81.40;100653.00;1754935;81;21202;-79
2021/12/27 04:41:52;;;;;;;34.58;15.85;;;;;;;-8.85;81.25;100657.97;1743829;81;21311;-79
2021/12/27 04:44:58;;;;;;;30.40;16.17;;;;;;;-8.89;80.71;100670.04;1768757;81;21877;-79
2021/12/27 04:48:02;;;;;;;32.28;17.40;;;;;;;-8.96;80.60;100667.17;1769747;80;21295;-79
2021/12/27 04:51:08;;;;;;;31.65;17.15;;;;;;;-9.01;80.84;100670.82;1770431;81;21283;-79
2021/12/27 04:54:13;;;;;;;34.60;16.70;;;;;;;-8.99;81.42;100676.07;1773824;79;21825;-79
2021/12/27 04:57:19;;;;;;;29.98;16.65;;;;;;;-9.03;81.46;100680.61;1785825;80;21177;-79
2021/12/27 05:00:25;;;;;;;33.42;18.23;;;;;;;-9.05;81.78;100685.07;1784687;80;21157;-80
2021/12/27 05:03:31;;;;;;;36.45;17.77;;;;;;;-9.04;82.37;100688.59;1785152;80;21280;-80
2021/12/27 05:06:39;;;;;;;36.95;16.93;;;;;;;-8.96;82.33;100689.70;1785532;80;21135;-80
2021/12/27 05:09:43;;;;;;;32.75;17.00;;;;;;;-8.90;82.57;100694.82;1786422;80;21150;-80
2021/12/27 05:12:50;;;;;;;35.55;16.48;;;;;;;-8.90;81.14;100699.66;1784744;80;21197;-80
2021/12/27 05:15:55;;;;;;;29.37;15.45;;;;;;;-8.95;80.09;100694.09;1786365;80;21284;-80
2021/12/27 05:19:00;;;;;;;33.02;16.35;;;;;;;-9.03;78.48;100687.23;1786441;80;21134;-80
2021/12/27 05:22:05;;;;;;;33.35;17.85;;;;;;;-9.12;77.36;100691.47;1786473;79;21896;-80
2021/12/27 05:25:12;;;;;;;36.23;18.00;;;;;;;-9.18;77.63;100688.97;1786353;79;21149;-80
2021/12/27 05:28:17;;;;;;;33.28;16.87;;;;;;;-9.19;77.96;100694.33;1786107;80;21336;-80
2021/12/27 05:31:24;;;;;;;35.10;18.55;;;;;;;-9.24;77.70;100688.29;1786422;80;21269;-80
2021/12/27 05:34:29;;;;;;;37.75;18.37;;;;;;;-9.31;78.08;100695.09;1786608;79;21265;-80
2021/12/27 05:37:37;;;;;;;40.40;18.35;;;;;;;-9.27;79.19;100694.52;1738311;82;21308;-80
2021/12/27 05:40:41;;;;;;;35.45;16.23;;;;;;;-9.27;78.44;100699.83;1742878;81;21201;-80
2021/12/27 05:43:46;;;;;;;33.70;16.97;;;;;;;-9.24;79.30;100708.16;1744932;81;21334;-80
2021/12/27 05:46:53;;;;;;;38.17;17.80;;;;;;;-9.23;79.79;100710.76;1756461;81;21331;-80
2021/12/27 05:49:58;;;;;;;36.68;17.23;;;;;;;-9.24;79.38;100716.11;1744891;81;21928;-80
2021/12/27 05:53:04;;;;;;;41.33;18.07;;;;;;;-9.27;79.33;100721.02;1738410;81;21192;-80
2021/12/27 05:56:09;;;;;;;36.53;18.00;;;;;;;-9.23;79.90;100728.44;1732706;82;21320;-80
2021/12/27 05:59:18;;;;;;;32.70;16.60;;;;;;;-9.15;80.33;100733.09;1733482;82;21302;-80
2021/12/27 06:02:23;;;;;;;32.53;16.90;;;;;;;-9.09;80.37;100735.56;1733526;82;21201;-80
2021/12/27 06:05:29;;;;;;;42.13;18.00;;;;;;;-9.06;79.74;100743.44;1728573;82;21277;-80
2021/12/27 06:08:35;;;;;;;30.35;16.87;;;;;;;-9.04;80.14;100750.41;1736949;81;21182;-80
2021/12/27 06:11:39;;;;;;;37.30;17.57;;;;;;;-8.99;80.20;100754.27;1746953;81;21594;-80
2021/12/27 06:14:45;;;;;;;37.13;18.35;;;;;;;-8.96;80.39;100770.09;1755009;81;21296;-80
2021/12/27 06:17:50;;;;;;;37.80;18.42;;;;;;;-8.98;78.91;100784.33;1740639;81;21160;-80
2021/12/27 06:20:56;;;;;;;34.85;17.75;;;;;;;-9.04;77.62;100788.85;1721681;81;21202;-80
2021/12/27 06:24:02;;;;;;;37.23;17.15;;;;;;;-9.13;75.43;100785.58;1731259;80;21257;-80
2021/12/27 06:27:07;;;;;;;36.98;19.30;;;;;;;-9.29;73.86;100786.45;1767257;81;21340;-80
2021/12/27 06:30:14;;;;;;;39.80;17.85;;;;;;;-9.33;73.91;100781.67;1756019;80;21294;-80
2021/12/27 06:33:18;;;;;;;36.10;18.87;;;;;;;-9.27;73.06;100784.61;1719631;82;21219;-80
2021/12/27 06:36:24;;;;;;;51.50;24.90;;;;;;;-9.27;72.03;100779.31;1692794;82;21363;-80
2021/12/27 06:39:31;;;;;;;59.98;26.17;;;;;;;-9.18;72.69;100788.80;1718829;82;22265;-80
2021/12/27 06:42:36;;;;;;;48.87;22.73;;;;;;;-8.99;74.19;100791.84;1742794;81;21288;-80
2021/12/27 06:45:42;;;;;;;51.23;20.77;;;;;;;-8.71;76.00;100793.27;1744793;81;21289;-79
2021/12/27 06:48:49;;;;;;;37.25;19.90;;;;;;;-8.48;76.49;100792.63;1714544;81;21742;-79
2021/12/27 06:51:54;;;;;;;37.85;18.05;;;;;;;-8.27;76.62;100787.53;1777903;79;21261;-79
2021/12/27 06:54:59;;;;;;;38.23;17.90;;;;;;;-8.05;76.93;100785.53;1754545;80;21795;-80
2021/12/27 06:58:04;;;;;;;36.15;17.87;;;;;;;-7.88;76.17;100779.24;1715721;82;21346;-79
2021/12/27 07:01:09;;;;;;;36.77;18.55;;;;;;;-7.86;76.10;100776.53;1779185;78;21158;-79
2021/12/27 07:04:16;;;;;;;35.65;17.65;;;;;;;-7.76;76.66;100776.20;1703641;81;21342;-81
2021/12/27 07:07:22;;;;;;;31.40;16.37;;;;;;;-7.69;76.83;100769.36;1780740;79;21869;-80
2021/12/27 07:10:28;;;;;;;41.63;19.17;;;;;;;-7.55;77.03;100768.45;1727921;81;21299;-81
2021/12/27 07:13:34;;;;;;;36.38;18.82;;;;;;;-7.50;76.73;100775.80;1717258;82;21192;-81
2021/12/27 07:16:39;;;;;;;33.02;16.27;;;;;;;-7.44;76.46;100778.24;1716315;81;21607;-82
2021/12/27 07:19:44;;;;;;;35.95;17.92;;;;;;;-7.48;75.70;100785.48;1736993;81;21339;-80
2021/12/27 07:22:50;;;;;;;32.60;17.25;;;;;;;-7.70;75.32;100780.45;1715626;81;21838;-79
2021/12/27 07:25:56;;;;;;;32.28;17.07;;;;;;;-7.80;75.61;100784.33;1745258;81;21312;-80
2021/12/27 07:29:01;;;;;;;38.78;18.17;;;;;;;-7.76;75.92;100783.31;1703122;81;21787;-80
2021/12/27 07:32:06;;;;;;;31.75;16.65;;;;;;;-7.74;75.99;100790.76;1779614;80;21606;-80
2021/12/27 07:35:12;;;;;;;33.83;17.85;;;;;;;-7.74;76.14;100786.77;1781092;79;21415;-81
2021/12/27 07:38:17;;;;;;;38.70;17.75;;;;;;;-7.72;76.32;100796.87;1786015;79;21268;-80
2021/12/27 07:41:23;;;;;;;42.30;18.40;;;;;;;-7.71;76.40;100805.28;1764594;79;21703;-82
2021/12/27 07:44:28;;;;;;;35.73;18.50;;;;;;;-7.68;76.48;100802.50;1776717;78;21598;-82
2021/12/27 07:47:33;;;;;;;37.78;19.82;;;;;;;-7.67;76.36;100808.22;1791492;78;21589;-81
2021/12/27 07:50:39;;;;;;;41.18;19.87;;;;;;;-7.58;76.23;100803.94;1786528;79;21249;-81
2021/12/27 07:53:44;;;;;;;26.45;14.85;;;;;;;-7.38;76.45;100801.98;1740497;81;21265;-83
2021/12/27 07:56:52;;;;;;;30.12;16.00;;;;;;;-7.13;76.20;100791.38;1777739;78;21323;-83
2021/12/27 07:59:58;;;;;;;33.20;18.35;;;;;;;-7.04;75.87;100796.84;1784491;78;21271;-81
2021/12/27 08:03:03;;;;;;;29.90;15.68;;;;;;;-7.04;75.65;100800.37;1779599;79;21327;-79
2021/12/27 08:06:09;;;;;;;25.32;14.93;;;;;;;-6.98;75.43;100803.27;1780333;78;21738;-81
2021/12/27 08:09:14;;;;;;;33.00;17.90;;;;;;;-7.11;74.87;100796.17;1778117;79;21826;-80
2021/12/27 08:12:20;;;;;;;31.10;17.27;;;;;;;-7.18;75.05;100790.67;1769472;80;21275;-81
2021/12/27 08:15:25;;;;;;;28.50;15.90;;;;;;;-7.28;74.95;100792.77;1785533;79;21825;-81
2021/12/27 08:18:31;;;;;;;33.00;17.30;;;;;;;-7.40;75.00;100794.97;1750782;81;21770;-81
2021/12/27 08:21:37;;;;;;;31.00;16.93;;;;;;;-7.46;75.19;100794.25;1746641;81;21201;-80
2021/12/27 08:24:45;;;;;;;30.37;16.32;;;;;;;-7.49;75.03;100792.15;1720367;82;21154;-81
2021/12/27 08:27:50;;;;;;;33.40;18.17;;;;;;;-7.57;75.47;100799.06;1780212;78;21184;-81
2021/12/27 08:30:55;;;;;;;30.97;17.35;;;;;;;-7.53;75.50;100811.34;1752022;81;21838;-80
2021/12/27 08:34:03;;;;;;;30.48;14.47;;;;;;;-7.41;75.57;100823.33;1776549;79;21177;-82
2021/12/27 08:37:09;;;;;;;32.98;17.67;;;;;;;-7.27;75.50;100823.74;1782600;78;21303;-80
2021/12/27 08:40:14;;;;;;;30.08;14.83;;;;;;;-7.15;75.21;100811.84;1788274;78;21252;-81
2021/12/27 08:43:21;;;;;;;33.78;18.52;;;;;;;-7.09;75.46;100804.98;1752708;81;21840;-81
2021/12/27 08:46:27;;;;;;;36.75;20.05;;;;;;;-7.05;75.47;100790.66;1780113;79;21351;-80
2021/12/27 08:49:34;;;;;;;32.38;18.60;;;;;;;-6.95;75.61;100785.42;1778904;79;21150;-81
2021/12/27 08:52:41;;;;;;;32.78;17.07;;;;;;;-6.87;75.53;100781.60;1794044;79;21839;-79
2021/12/27 08:55:47;;;;;;;40.52;19.07;;;;;;;-6.93;75.55;100773.85;1788918;79;21350;-80
2021/12/27 08:58:55;;;;;;;33.70;19.48;;;;;;;-6.93;76.06;100772.52;1788916;78;21384;-81
2021/12/27 09:02:01;;;;;;;37.85;20.80;;;;;;;-6.88;76.31;100775.42;1724856;82;21327;-81
2021/12/27 09:05:06;;;;;;;36.83;20.70;;;;;;;-6.82;76.50;100775.66;1752505;81;21267;-81
2021/12/27 09:08:12;;;;;;;32.45;18.85;;;;;;;-6.66;76.71;100779.52;1759297;80;21300;-79
2021/12/27 09:11:18;;;;;;;35.15;19.90;;;;;;;-6.57;76.55;100780.50;1765663;81;21972;-80
2021/12/27 09:14:24;;;;;;;36.58;20.37;;;;;;;-6.51;76.86;100784.73;1742928;81;21676;-80
2021/12/27 09:17:30;;;;;;;38.33;21.73;;;;;;;-6.44;76.89;100779.13;1756802;81;21826;-80
2021/12/27 09:20:35;;;;;;;37.38;20.82;;;;;;;-6.37;77.04;100782.88;1759556;81;21231;-80
2021/12/27 09:23:41;;;;;;;38.13;20.43;;;;;;;-6.39;77.02;100782.09;1755021;81;21268;-80
2021/12/27 09:26:45;;;;;;;44.15;23.67;;;;;;;-6.40;77.26;100780.33;1741469;81;21299;-79
2021/12/27 09:29:50;;;;;;;44.05;24.43;;;;;;;-6.36;77.53;100778.83;1744299;81;21288;-80
2021/12/27 09:32:57;;;;;;;42.20;23.52;;;;;;;-6.24;77.65;100783.70;1786188;78;21271;-80
2021/12/27 09:36:02;;;;;;;42.10;23.32;;;;;;;-6.05;77.70;100782.98;1768984;81;21646;-79
2021/12/27 09:39:09;;;;;;;34.88;19.40;;;;;;;-5.88;77.41;100779.61;1793584;78;21161;-80
2021/12/27 09:42:14;;;;;;;38.88;22.00;;;;;;;-5.72;77.25;100772.76;1778166;79;21343;-80
2021/12/27 09:45:19;;;;;;;39.80;23.12;;;;;;;-5.57;77.02;100775.26;1785084;78;21265;-81
2021/12/27 09:48:25;;;;;;;41.83;23.40;;;;;;;-5.49;76.74;100783.81;1765970;79;21311;-80
2021/12/27 09:51:31;;;;;;;39.42;22.20;;;;;;;-5.41;76.75;100793.24;1785994;79;21137;-80
2021/12/27 09:54:35;;;;;;;33.48;18.95;;;;;;;-5.26;76.59;100790.87;1784094;80;21782;-80
2021/12/27 09:57:41;;;;;;;38.13;21.37;;;;;;;-5.26;76.31;100794.39;1774855;79;21568;-80
2021/12/27 10:00:46;;;;;;;38.98;22.25;;;;;;;-5.21;76.48;100793.73;1749450;80;21810;-81
2021/12/27 10:03:56;;;;;;;39.30;20.65;;;;;;;-5.03;76.57;100799.23;1793411;78;21705;-80
2021/12/27 10:07:01;;;;;;;43.17;21.77;;;;;;;-4.92;75.91;100804.48;1707648;81;21303;-81
2021/12/27 10:10:07;;;;;;;37.55;20.60;;;;;;;-5.06;75.56;100799.34;1791905;79;21255;-80
2021/12/27 10:13:17;;;;;;;37.40;20.72;;;;;;;-5.06;76.22;100796.21;1800460;78;21263;-79
2021/12/27 10:16:23;;;;;;;42.95;24.02;;;;;;;-5.01;76.03;100792.02;1750770;80;21181;-81
2021/12/27 10:19:29;;;;;;;44.93;23.15;;;;;;;-4.87;76.33;100799.42;1750089;80;21336;-80
2021/12/27 10:22:34;;;;;;;43.45;24.43;;;;;;;-4.71;76.26;100809.34;1777891;80;21336;-80
2021/12/27 10:25:39;;;;;;;36.65;20.77;;;;;;;-4.59;75.86;100823.97;1735064;81;21845;-81
2021/12/27 10:28:44;;;;;;;36.83;20.82;;;;;;;-4.46;76.03;100810.48;1741947;82;21660;-81
2021/12/27 10:32:09;;;;;;;42.83;22.58;;;;;;;-4.37;75.38;100805.20;1729035;81;21991;-81
2021/12/27 10:35:16;;;;;;;37.95;22.45;;;;;;;-4.41;75.62;100799.13;1734209;81;21316;-80
2021/12/27 10:38:32;;;;;;;33.30;20.27;;;;;;;-4.25;75.71;100809.97;1718938;82;21850;-81
2021/12/27 10:41:43;;;;;;;30.65;18.65;;;;;;;-4.19;75.55;100803.47;1711934;81;21337;-81
2021/12/27 10:44:51;;;;;;;39.15;21.00;;;;;;;-4.20;75.44;100798.59;1742718;80;21331;-81
2021/12/27 10:48:02;;;;;;;39.65;21.80;;;;;;;-4.21;75.81;100805.36;1760677;81;21340;-81
2021/12/27 10:51:06;;;;;;;36.15;19.85;;;;;;;-4.14;75.79;100802.34;1760468;81;21170;-80
2021/12/27 10:54:15;;;;;;;36.68;18.80;;;;;;;-4.09;75.60;100803.91;1742610;81;21275;-80
2021/12/27 10:57:20;;;;;;;28.20;17.50;;;;;;;-4.14;75.55;100796.10;1763099;81;21312;-80
2021/12/27 11:00:33;;;;;;;32.17;18.07;;;;;;;-4.37;75.60;100799.39;1759239;80;21225;-81
2021/12/27 11:03:47;;;;;;;37.55;19.23;;;;;;;-4.51;76.32;100796.95;1749384;81;21877;-81
2021/12/27 11:06:54;;;;;;;28.23;16.80;;;;;;;-4.56;76.85;100792.25;1746277;81;21873;-80
2021/12/27 11:10:01;;;;;;;31.57;17.50;;;;;;;-4.63;77.33;100783.66;1761120;81;21189;-80
2021/12/27 11:13:06;;;;;;;36.10;20.23;;;;;;;-4.70;77.76;100784.88;1750926;81;21288;-80
2021/12/27 11:16:12;;;;;;;36.73;18.77;;;;;;;-4.72;78.21;100786.27;1755270;79;21547;-81
2021/12/27 11:19:18;;;;;;;30.55;18.12;;;;;;;-4.75;78.65;100780.19;1750557;80;21703;-80
2021/12/27 11:22:23;;;;;;;34.58;17.42;;;;;;;-4.77;78.98;100774.06;1735304;82;21216;-80
2021/12/27 11:25:41;;;;;;;30.48;17.42;;;;;;;-4.91;79.20;100780.00;1703895;82;21177;-80
2021/12/27 11:28:50;;;;;;;35.80;19.40;;;;;;;-4.91;79.74;100778.67;1735317;82;21225;-80
2021/12/27 11:32:19;;;;;;;35.45;19.67;;;;;;;-4.85;79.63;100777.06;1738170;81;21220;-80
2021/12/27 11:35:24;;;;;;;36.60;18.95;;;;;;;-4.91;79.11;100780.87;1729220;82;21191;-81
2021/12/27 11:38:42;;;;;;;39.33;20.88;;;;;;;-4.98;79.35;100780.75;1704637;82;21750;-80
2021/12/27 11:41:46;;;;;;;37.58;18.92;;;;;;;-4.92;79.35;100788.95;1708284;82;21337;-81
2021/12/27 11:44:59;;;;;;;35.15;17.98;;;;;;;-4.93;78.99;100777.41;1732346;83;21275;-80
2021/12/27 11:48:22;;;;;;;29.65;17.90;;;;;;;-4.96;79.18;100778.87;1767418;80;21193;-80
2021/12/27 11:51:43;;;;;;;32.88;17.57;;;;;;;-4.98;79.28;100782.09;1760309;81;21759;-81
2021/12/27 11:55:06;;;;;;;31.42;17.55;;;;;;;-5.01;79.68;100770.67;1715963;82;21169;-80
2021/12/27 11:58:11;;;;;;;33.50;18.27;;;;;;;-5.05;79.87;100768.59;1700994;83;21316;-80
2021/12/27 12:01:34;;;;;;;34.92;19.98;;;;;;;-5.20;80.19;100773.27;1732147;82;21169;-80
2021/12/27 12:04:51;;;;;;;35.48;18.80;;;;;;;-5.26;80.84;100775.73;1680056;85;21319;-81
2021/12/27 12:07:57;;;;;;;41.13;21.05;;;;;;;-5.24;81.43;100773.84;1703256;83;21329;-80
2021/12/27 12:11:07;;;;;;;37.05;20.57;;;;;;;-5.25;81.65;100777.45;1693447;84;21336;-80
2021/12/27 12:14:36;;;;;;;36.15;17.67;;;;;;;-5.20;82.00;100775.45;1756876;81;21756;-81
2021/12/27 12:17:52;;;;;;;29.97;14.73;;;;;;;-5.18;81.99;100772.25;1721911;83;21872;-80
2021/12/27 12:20:58;;;;;;;36.00;19.55;;;;;;;-5.26;82.04;100778.86;1714863;83;21202;-80
2021/12/27 12:24:07;;;;;;;38.90;19.92;;;;;;;-5.25;82.28;100779.26;1742338;81;21795;-80
2021/12/27 12:27:17;;;;;;;35.43;19.37;;;;;;;-5.25;82.11;100785.45;1753684;82;21244;-80
2021/12/27 12:30:22;;;;;;;33.80;19.35;;;;;;;-5.28;82.17;100789.58;1753891;82;21157;-81
2021/12/27 12:33:36;;;;;;;38.65;18.07;;;;;;;-5.28;82.27;100789.58;1739273;82;21317;-80
2021/12/27 12:36:41;;;;;;;38.00;19.85;;;;;;;-5.34;82.11;100791.64;1757740;81;21783;-80
2021/12/27 12:39:50;;;;;;;41.35;19.17;;;;;;;-5.42;82.26;100798.61;1756165;81;21165;-80
2021/12/27 12:42:56;;;;;;;31.77;18.12;;;;;;;-5.58;82.19;100801.52;1756499;81;21296;-80
2021/12/27 12:46:00;;;;;;;32.23;17.98;;;;;;;-5.62;82.53;100801.23;1762650;81;21276;-80
2021/12/27 12:49:20;;;;;;;41.18;21.45;;;;;;;-5.68;82.62;100798.36;1719665;81;21277;-80
2021/12/27 12:52:27;;;;;;;36.03;18.82;;;;;;;-5.76;82.92;100803.12;1770656;81;21284;-81
2021/12/27 12:55:38;;;;;;;37.53;19.15;;;;;;;-5.78;83.19;100810.32;1769997;81;21187;-81
2021/12/27 12:58:44;;;;;;;35.10;17.50;;;;;;;-5.80;83.53;100808.16;1769803;81;21284;-80
2021/12/27 13:02:14;;;;;;;31.70;18.15;;;;;;;-5.85;83.74;100814.14;1769580;80;21319;-80
2021/12/27 13:05:23;;;;;;;31.82;17.95;;;;;;;-5.83;84.17;100804.27;1755933;80;21332;-80
2021/12/27 13:08:28;;;;;;;35.17;19.20;;;;;;;-5.84;84.24;100801.21;1769048;81;21789;-80
2021/12/27 13:11:37;;;;;;;32.15;17.73;;;;;;;-5.91;84.26;100805.46;1769487;81;21268;-81
2021/12/27 13:14:41;;;;;;;37.03;18.55;;;;;;;-5.91;84.57;100809.92;1770354;80;21379;-80
2021/12/27 13:17:47;;;;;;;34.85;17.32;;;;;;;-5.94;84.64;100805.60;1769548;80;21323;-80
2021/12/27 13:20:57;;;;;;;40.52;22.70;;;;;;;-6.00;84.83;100803.19;1770790;81;22161;-81
2021/12/27 13:24:02;;;;;;;34.27;19.07;;;;;;;-6.03;85.05;100798.44;1771452;81;21149;-80
2021/12/27 13:27:07;;;;;;;34.08;17.92;;;;;;;-6.04;85.19;100802.89;1768670;80;21298;-80
2021/12/27 13:30:20;;;;;;;36.08;19.67;;;;;;;-6.11;85.40;100800.55;1771637;81;21263;-80
2021/12/27 13:33:27;;;;;;;33.33;18.52;;;;;;;-6.18;85.86;100801.23;1782644;79;21316;-80
2021/12/27 13:36:47;;;;;;;33.23;18.17;;;;;;;-6.27;86.09;100800.24;1787112;80;21142;-80
2021/12/27 13:39:53;;;;;;;32.40;18.48;;;;;;;-6.31;86.50;100800.81;1787225;80;21269;-81
2021/12/27 13:42:59;;;;;;;38.45;21.00;;;;;;;-6.33;86.80;100811.13;1787357;80;21292;-80
2021/12/27 13:46:03;;;;;;;36.40;20.52;;;;;;;-6.36;87.10;100815.23;1780427;79;21273;-80
2021/12/27 13:49:09;;;;;;;38.00;20.92;;;;;;;-6.34;87.52;100816.06;1785665;79;21807;-80
2021/12/27 13:52:18;;;;;;;33.23;18.00;;;;;;;-6.35;87.51;100812.53;1772375;80;21253;-80
2021/12/27 13:55:33;;;;;;;42.62;20.55;;;;;;;-6.34;87.80;100810.27;1769022;80;21300;-80
2021/12/27 13:58:41;;;;;;;36.88;18.80;;;;;;;-6.32;87.93;100805.73;1773403;80;21162;-80
2021/12/27 14:01:49;;;;;;;32.80;19.20;;;;;;;-6.31;87.98;100815.92;1773187;79;21214;-80
2021/12/27 14:05:07;;;;;;;33.63;16.00;;;;;;;-6.33;88.01;100804.48;1787488;80;21197;-80
2021/12/27 14:08:19;;;;;;;35.40;18.35;;;;;;;-6.35;88.00;100799.66;1787594;79;21304;-80
2021/12/27 14:11:24;;;;;;;42.93;21.70;;;;;;;-6.44;88.00;100793.77;1787551;80;21146;-80